13°C Temp
6°C Dewpoint
63% Humidity
Temperature
14 KM/H
9 MPH
8 KTS
220°
South West

Wind Speed
Overcast
Conditions
Pressure 1023.92 (hPa) - 30.24 (in)
Visibility 6.2 (mi) - 10.0 (km)

Current Conditions
EHDL
Location Deelen Air Base 30(km)
Metar :EHDL 161525Z AUTO 22008KT 170V260 9999 OVC320 13/06 Q1024 BLU
Sat 16th February 16:25 pm

Airport
  Metar Aviation API Data Provided by https://www.checkwx.com/ PHP scripts by weather34.com ©2019